createdAt,value
2019-01-15T00:01:40.520Z,78.67
2019-01-15T00:06:44.597Z,78.63
2019-01-15T00:11:48.846Z,78.41
2019-01-15T00:16:52.995Z,78.48
2019-01-15T00:21:57.047Z,78.33
2019-01-15T00:27:01.184Z,78.03
2019-01-15T00:32:05.537Z,78.00
2019-01-15T00:37:09.676Z,77.98
2019-01-15T00:42:15.422Z,78.00
2019-01-15T00:47:19.753Z,77.62
2019-01-15T00:52:23.909Z,77.16
2019-01-15T00:57:28.065Z,77.04
2019-01-15T01:02:33.210Z,77.26
2019-01-15T01:07:37.300Z,77.19
2019-01-15T01:12:41.306Z,77.09
2019-01-15T01:17:45.333Z,77.20
2019-01-15T01:22:49.909Z,77.12
2019-01-15T01:27:54.236Z,77.79
2019-01-15T01:32:58.559Z,77.81
2019-01-15T01:38:03.146Z,77.45
2019-01-15T01:43:07.270Z,76.99
2019-01-15T01:48:11.378Z,77.68
2019-01-15T01:53:15.451Z,77.41
2019-01-15T01:58:19.914Z,77.63
2019-01-15T02:03:24.015Z,77.49
2019-01-15T02:08:28.117Z,77.46
2019-01-15T02:13:32.601Z,76.76
2019-01-15T02:18:36.675Z,77.19
2019-01-15T02:23:40.721Z,77.43
2019-01-15T02:28:44.720Z,77.67
2019-01-15T02:33:48.850Z,79.04
2019-01-15T02:38:52.887Z,79.44
2019-01-15T02:43:57.242Z,80.23
2019-01-15T02:49:04.756Z,80.90
2019-01-15T02:54:08.851Z,81.19
2019-01-15T02:59:13.170Z,81.75
2019-01-15T03:04:17.188Z,81.67
2019-01-15T03:09:21.201Z,81.85
2019-01-15T03:14:25.218Z,81.48
2019-01-15T03:19:29.369Z,82.36
2019-01-15T03:24:33.782Z,82.42
2019-01-15T03:29:37.880Z,82.61
2019-01-15T03:34:41.901Z,82.98
2019-01-15T03:39:46.227Z,83.16
2019-01-15T03:44:50.504Z,82.74
2019-01-15T03:49:54.534Z,83.41
2019-01-15T03:54:58.546Z,83.59
2019-01-15T04:00:06.890Z,83.48
2019-01-15T04:05:12.538Z,83.82
2019-01-15T04:10:16.761Z,83.37
2019-01-15T04:15:20.786Z,82.91
2019-01-15T04:20:25.086Z,83.07
2019-01-15T04:25:29.140Z,82.39
2019-01-15T04:30:33.246Z,82.15
2019-01-15T04:35:37.334Z,81.76
2019-01-15T04:40:43.764Z,81.48
2019-01-15T04:45:47.823Z,81.44
2019-01-15T04:50:52.741Z,81.35
2019-01-15T04:55:56.898Z,81.17
2019-01-15T05:01:04.975Z,81.22
2019-01-15T05:06:09.109Z,81.35
2019-01-15T05:11:13.189Z,81.33
2019-01-15T05:16:17.520Z,81.43
2019-01-15T05:21:21.834Z,81.04
2019-01-15T05:26:28.196Z,80.83
2019-01-15T05:31:32.500Z,81.00
2019-01-15T05:36:36.564Z,80.88
2019-01-15T05:41:40.908Z,80.72
2019-01-15T05:46:45.268Z,80.60
2019-01-15T05:51:49.301Z,80.06
2019-01-15T05:56:54.372Z,79.91
2019-01-15T06:01:58.486Z,79.76
2019-01-15T06:07:02.605Z,79.59
2019-01-15T06:12:06.663Z,79.21
2019-01-15T06:17:10.834Z,78.84
2019-01-15T06:22:14.961Z,78.22
2019-01-15T06:27:19.077Z,77.48
2019-01-15T06:32:23.149Z,78.27
2019-01-15T06:37:27.333Z,77.18
2019-01-15T06:42:31.428Z,77.25
2019-01-15T06:47:35.778Z,76.88
2019-01-15T06:52:40.050Z,76.68
2019-01-15T06:57:44.044Z,76.83
2019-01-15T07:02:48.472Z,76.87
2019-01-15T07:07:52.525Z,77.43
2019-01-15T07:12:56.635Z,76.38
2019-01-15T07:18:00.718Z,77.36
2019-01-15T07:23:04.731Z,76.93
2019-01-15T07:28:08.993Z,77.21
2019-01-15T07:33:13.295Z,77.17
2019-01-15T07:38:17.599Z,76.83
2019-01-15T07:43:22.022Z,76.68
2019-01-15T07:48:26.079Z,76.74
2019-01-15T07:53:30.403Z,76.79
2019-01-15T07:58:34.417Z,76.98
2019-01-15T08:03:38.753Z,77.24
2019-01-15T08:08:43.089Z,76.71
2019-01-15T08:13:47.157Z,76.64
2019-01-15T08:18:51.656Z,76.73
2019-01-15T08:23:55.749Z,76.74
2019-01-15T08:28:59.794Z,76.99
2019-01-15T08:34:03.821Z,76.54
2019-01-15T08:39:08.423Z,76.24
2019-01-15T08:44:19.040Z,78.25
2019-01-15T08:49:18.213Z,84.89
2019-01-15T08:54:22.217Z,88.74
2019-01-15T08:59:26.331Z,90.16
2019-01-15T09:04:30.521Z,90.59
2019-01-15T09:09:34.554Z,90.62
2019-01-15T09:14:38.601Z,90.48
2019-01-15T09:19:42.689Z,90.35
2019-01-15T09:24:46.810Z,90.31
2019-01-15T09:29:50.912Z,90.55
2019-01-15T09:34:54.951Z,90.23
2019-01-15T09:39:58.968Z,90.40
2019-01-15T09:45:03.285Z,90.69
2019-01-15T09:50:09.243Z,90.11
2019-01-15T09:55:13.674Z,90.40
2019-01-15T10:00:17.940Z,89.54
2019-01-15T10:05:21.963Z,89.33
2019-01-15T10:10:25.977Z,89.27
2019-01-15T10:15:29.962Z,89.42
2019-01-15T10:20:33.986Z,88.81
2019-01-15T10:25:38.003Z,88.59
2019-01-15T10:31:07.101Z,87.75
2019-01-15T10:36:09.385Z,87.45
2019-01-15T10:41:13.387Z,88.21
2019-01-15T10:46:17.398Z,88.10
2019-01-15T10:51:21.456Z,87.92
2019-01-15T10:56:25.499Z,88.06
2019-01-15T11:01:29.540Z,87.16
2019-01-15T11:06:33.831Z,86.42
2019-01-15T11:11:37.851Z,85.91
2019-01-15T11:16:41.919Z,85.79
2019-01-15T11:21:46.656Z,85.57
2019-01-15T11:26:50.736Z,85.98
2019-01-15T11:31:54.864Z,87.50
2019-01-15T11:37:00.153Z,89.08
2019-01-15T11:42:05.380Z,90.23
2019-01-15T11:47:11.237Z,89.48
2019-01-15T11:52:16.659Z,89.67
2019-01-15T11:57:21.206Z,88.98
2019-01-15T12:02:26.371Z,88.14
2019-01-15T12:07:31.068Z,88.56
2019-01-15T12:12:36.923Z,88.48
2019-01-15T12:17:42.418Z,87.58
2019-01-15T12:22:46.557Z,87.38
2019-01-15T12:27:50.688Z,87.37
2019-01-15T12:32:55.511Z,87.87
2019-01-15T12:38:00.176Z,89.79
2019-01-15T12:43:05.111Z,92.69
2019-01-15T12:48:09.177Z,95.09
2019-01-15T12:53:13.606Z,97.04
2019-01-15T12:58:17.611Z,98.20
2019-01-15T13:03:21.797Z,99.57
2019-01-15T13:08:26.582Z,100.00
2019-01-15T13:13:30.880Z,100.00
2019-01-15T13:18:35.242Z,100.00
2019-01-15T13:23:39.640Z,100.00
2019-01-15T13:28:43.687Z,100.00
2019-01-15T13:33:47.807Z,100.00
2019-01-15T13:38:52.771Z,100.00
2019-01-15T13:43:57.064Z,100.00
2019-01-15T13:49:01.436Z,100.00
2019-01-15T13:54:06.021Z,100.00
2019-01-15T13:59:10.157Z,100.00
2019-01-15T14:04:14.236Z,100.00
2019-01-15T14:09:18.326Z,100.00
2019-01-15T14:14:22.980Z,100.00
2019-01-15T14:19:28.127Z,100.00
2019-01-15T14:24:32.936Z,100.00
2019-01-15T14:29:37.460Z,100.00
2019-01-15T14:34:41.945Z,100.00
2019-01-15T14:39:46.143Z,100.00
2019-01-15T14:44:51.836Z,100.00
2019-01-15T14:49:56.942Z,100.00
2019-01-15T14:55:01.179Z,100.00
2019-01-15T15:00:08.437Z,100.00
2019-01-15T15:05:13.837Z,100.00
2019-01-15T15:10:19.586Z,100.00
2019-01-15T15:15:23.930Z,100.00
2019-01-15T15:20:27.960Z,100.00
2019-01-15T15:25:31.998Z,100.00
2019-01-15T15:30:36.070Z,100.00
2019-01-15T15:35:40.140Z,100.00
2019-01-15T15:40:44.192Z,100.00
2019-01-15T15:45:49.113Z,100.00
2019-01-15T15:50:53.181Z,100.00
2019-01-15T15:55:57.216Z,100.00
2019-01-15T16:01:01.260Z,100.00
2019-01-15T16:06:05.314Z,100.00
2019-01-15T16:11:11.047Z,100.00
2019-01-15T16:16:18.952Z,100.00
2019-01-15T16:21:21.265Z,100.00
2019-01-15T16:26:25.304Z,100.00
2019-01-15T16:31:29.356Z,100.00
2019-01-15T16:36:33.392Z,100.00
2019-01-15T16:41:37.439Z,99.96
2019-01-15T16:46:41.504Z,99.72
2019-01-15T16:51:45.621Z,98.35
2019-01-15T16:56:50.133Z,97.80
2019-01-15T17:01:54.271Z,96.86
2019-01-15T17:06:58.273Z,96.85
2019-01-15T17:12:02.456Z,97.28
2019-01-15T17:17:06.565Z,97.25
2019-01-15T17:22:19.072Z,98.14
2019-01-15T17:27:23.825Z,97.94
2019-01-15T17:32:27.864Z,98.16
2019-01-15T17:37:31.926Z,97.64
2019-01-15T17:42:36.061Z,97.93
2019-01-15T17:47:40.086Z,97.56
2019-01-15T17:52:44.185Z,96.95
2019-01-15T17:57:49.469Z,95.48
2019-01-15T18:02:53.486Z,95.19
2019-01-15T18:07:57.675Z,94.47
2019-01-15T18:13:01.748Z,93.46
2019-01-15T18:18:06.811Z,93.53
2019-01-15T18:23:11.366Z,94.34
2019-01-15T18:28:15.804Z,95.91
2019-01-15T18:33:20.869Z,97.52
2019-01-15T18:38:25.865Z,98.78
2019-01-15T18:43:30.773Z,99.20
2019-01-15T18:48:35.459Z,99.81
2019-01-15T18:53:40.284Z,100.00
2019-01-15T18:58:44.860Z,100.00
2019-01-15T19:03:48.949Z,100.00
2019-01-15T19:08:52.980Z,100.00
2019-01-15T19:13:57.301Z,99.68
2019-01-15T19:19:01.648Z,99.72
2019-01-15T19:24:06.202Z,99.96
2019-01-15T19:29:11.015Z,100.00
2019-01-15T19:34:15.158Z,100.00
2019-01-15T19:39:19.832Z,100.00
2019-01-15T19:44:24.185Z,100.00
2019-01-15T19:49:29.154Z,100.00
2019-01-15T19:54:34.631Z,100.00
2019-01-15T19:59:39.530Z,100.00
2019-01-15T20:04:43.858Z,100.00
2019-01-15T20:09:48.486Z,100.00
2019-01-15T20:14:52.742Z,100.00
2019-01-15T20:19:56.895Z,100.00
2019-01-15T20:25:00.965Z,100.00
2019-01-15T20:30:06.954Z,100.00
2019-01-15T20:35:11.090Z,100.00
2019-01-15T20:40:15.220Z,100.00
2019-01-15T20:45:19.515Z,100.00
2019-01-15T20:50:23.663Z,100.00
2019-01-15T20:55:28.355Z,100.00
2019-01-15T21:00:32.762Z,100.00
2019-01-15T21:05:36.935Z,100.00
2019-01-15T21:10:41.655Z,100.00
2019-01-15T21:15:45.986Z,100.00
2019-01-15T21:20:50.078Z,100.00
2019-01-15T21:25:54.115Z,100.00
2019-01-15T21:30:58.234Z,100.00
2019-01-15T21:36:02.359Z,100.00
2019-01-15T21:41:06.438Z,100.00
2019-01-15T21:46:10.466Z,100.00
2019-01-15T21:51:14.817Z,100.00
2019-01-15T21:56:19.154Z,100.00
2019-01-15T22:01:23.256Z,100.00
2019-01-15T22:06:27.322Z,100.00
2019-01-15T22:11:31.650Z,100.00
2019-01-15T22:16:35.671Z,100.00
2019-01-15T22:21:39.715Z,100.00
2019-01-15T22:26:43.843Z,100.00
2019-01-15T22:31:47.971Z,100.00
2019-01-15T22:36:52.007Z,100.00
2019-01-15T22:41:56.037Z,100.00
2019-01-15T22:47:00.081Z,100.00
2019-01-15T22:52:04.350Z,100.00
2019-01-15T22:57:08.360Z,100.00
2019-01-15T23:02:12.581Z,100.00
2019-01-15T23:07:16.632Z,100.00
2019-01-15T23:12:20.689Z,100.00
2019-01-15T23:17:24.796Z,100.00
2019-01-15T23:22:29.086Z,100.00
2019-01-15T23:27:33.154Z,100.00
2019-01-15T23:32:37.234Z,100.00
2019-01-15T23:37:41.267Z,100.00
2019-01-15T23:42:45.366Z,100.00
2019-01-15T23:47:49.661Z,100.00
2019-01-15T23:52:53.707Z,100.00
2019-01-15T23:57:57.791Z,100.00
